Time;durP1;ratioP1;P1;durP2;ratioP2;P2;SDS_P1;SDS_P2;PMS_P1;PMS_P2;Temp;Humidity;BMP_temperature;BMP_pressure;BME280_temperature;BME280_humidity;BME280_pressure;Samples;Min_cycle;Max_cycle;Signal;HPM_P1;HPM_P2
2021/05/16 00:01:48;;;;;;;5.07;2.67;;;9.80;99.90;;;;;;5014570;28;20217;-83
2021/05/16 00:04:14;;;;;;;3.73;2.80;;;9.80;99.90;;;;;;5033497;28;20173;-83
2021/05/16 00:06:39;;;;;;;3.77;2.90;;;9.80;99.90;;;;;;5012611;28;20189;-84
2021/05/16 00:09:05;;;;;;;6.70;4.13;;;9.80;99.90;;;;;;5021579;28;20221;-84
2021/05/16 00:11:31;;;;;;;3.40;2.73;;;9.80;99.90;;;;;;5035272;28;20511;-84
2021/05/16 00:13:57;;;;;;;3.73;2.97;;;;;;;;;;5013554;28;20201;-83
2021/05/16 00:16:23;;;;;;;4.30;3.27;;;9.70;99.90;;;;;;5013918;28;20183;-84
2021/05/16 00:18:48;;;;;;;3.70;2.40;;;9.70;99.90;;;;;;5013402;28;20183;-84
2021/05/16 00:21:14;;;;;;;5.80;4.10;;;9.60;99.90;;;;;;5027135;28;20244;-83
2021/05/16 00:23:40;;;;;;;6.50;3.70;;;9.60;99.90;;;;;;5013302;28;20191;-84
2021/05/16 00:26:05;;;;;;;3.70;2.40;;;9.50;99.90;;;;;;5010198;28;20187;-84
2021/05/16 00:28:31;;;;;;;5.83;2.90;;;9.40;99.90;;;;;;5015908;28;20237;-83
2021/05/16 00:30:58;;;;;;;3.50;2.70;;;9.40;99.90;;;;;;5009075;28;20263;-84
2021/05/16 00:33:24;;;;;;;4.97;3.07;;;;;;;;;;5022634;28;20188;-84
2021/05/16 00:35:50;;;;;;;8.90;5.50;;;9.30;99.90;;;;;;5013304;28;20267;-84
2021/05/16 00:38:15;;;;;;;5.07;2.97;;;9.30;99.90;;;;;;5016231;28;20236;-83
2021/05/16 00:40:41;;;;;;;4.73;3.10;;;9.20;99.90;;;;;;5030908;28;20328;-84
2021/05/16 00:43:07;;;;;;;8.47;4.20;;;9.20;99.90;;;;;;5008445;28;20184;-84
2021/05/16 00:45:34;;;;;;;4.63;2.77;;;9.20;99.90;;;;;;5031193;28;20185;-83
2021/05/16 00:48:03;;;;;;;5.33;3.20;;;9.20;99.90;;;;;;5035060;28;20183;-84
2021/05/16 00:50:36;;;;;;;6.33;3.30;;;9.20;99.90;;;;;;5015413;28;20224;-84
2021/05/16 00:53:02;;;;;;;7.23;4.73;;;9.10;99.90;;;;;;5016721;28;20267;-84
2021/05/16 00:55:28;;;;;;;6.73;3.20;;;9.30;99.90;;;;;;5035796;28;20183;-83
2021/05/16 00:57:54;;;;;;;4.60;3.30;;;9.10;99.90;;;;;;5010201;28;20194;-84
2021/05/16 01:00:30;;;;;;;5.10;3.57;;;9.20;99.90;;;;;;5007961;28;20190;-84
2021/05/16 01:02:56;;;;;;;5.60;3.67;;;9.20;99.90;;;;;;5007073;28;20689;-84
2021/05/16 01:05:22;;;;;;;7.87;2.87;;;9.20;99.90;;;;;;5014045;28;20187;-84
2021/05/16 01:07:48;;;;;;;4.43;2.87;;;9.20;99.90;;;;;;5014268;28;20237;-84
2021/05/16 01:10:15;;;;;;;4.33;3.33;;;9.30;99.90;;;;;;5014911;28;20296;-84
2021/05/16 01:12:46;;;;;;;6.97;2.97;;;9.30;99.90;;;;;;5016439;28;20220;-84
2021/05/16 01:15:18;;;;;;;6.50;3.10;;;9.40;99.90;;;;;;5013482;28;20557;-84
2021/05/16 01:17:45;;;;;;;6.87;3.30;;;9.20;99.90;;;;;;5018328;28;20278;-84
2021/05/16 01:20:24;;;;;;;5.03;2.93;;;9.30;99.90;;;;;;5030603;28;20278;-84
2021/05/16 01:22:55;;;;;;;5.70;3.47;;;9.30;99.90;;;;;;5029736;28;20192;-85
2021/05/16 01:25:21;;;;;;;5.57;3.40;;;9.40;99.90;;;;;;5015203;28;20208;-85
2021/05/16 01:27:47;;;;;;;4.50;3.37;;;10.10;99.90;;;;;;5018423;28;20191;-85
2021/05/16 01:30:13;;;;;;;5.83;3.27;;;9.40;99.90;;;;;;5014963;28;20315;-85
2021/05/16 01:32:38;;;;;;;5.03;3.30;;;9.50;99.90;;;;;;5018510;28;20204;-84
2021/05/16 01:35:05;;;;;;;5.73;3.73;;;9.50;99.90;;;;;;5021579;28;20191;-85
2021/05/16 01:37:31;;;;;;;5.30;3.53;;;9.50;99.90;;;;;;5031232;28;20262;-85
2021/05/16 01:39:57;;;;;;;5.33;3.40;;;10.10;99.90;;;;;;5013583;28;20314;-84
2021/05/16 01:42:25;;;;;;;5.57;3.50;;;9.50;99.90;;;;;;5031746;28;20190;-85
2021/05/16 01:44:53;;;;;;;5.90;3.40;;;9.60;99.90;;;;;;5032665;28;20193;-84
2021/05/16 01:47:19;;;;;;;5.27;3.53;;;9.60;99.90;;;;;;5012071;28;20234;-85
2021/05/16 01:49:51;;;;;;;7.60;5.27;;;9.60;99.90;;;;;;5010029;28;20219;-85
2021/05/16 01:52:17;;;;;;;5.33;3.40;;;9.60;99.90;;;;;;5007304;28;20214;-85
2021/05/16 01:54:43;;;;;;;7.47;3.33;;;9.60;99.90;;;;;;5015757;28;20187;-85
2021/05/16 01:57:09;;;;;;;4.60;3.13;;;9.60;99.90;;;;;;5013725;28;20207;-85
2021/05/16 01:59:37;;;;;;;5.20;3.13;;;9.60;99.90;;;;;;5008162;28;20201;-85
2021/05/16 02:02:03;;;;;;;9.27;5.63;;;9.60;99.90;;;;;;5029634;28;20202;-85
2021/05/16 02:04:31;;;;;;;3.93;3.07;;;9.60;99.90;;;;;;5017407;28;20187;-85
2021/05/16 02:06:58;;;;;;;6.77;3.60;;;9.60;99.90;;;;;;5003334;28;20199;-85
2021/05/16 02:09:28;;;;;;;4.20;3.20;;;9.60;99.90;;;;;;5014095;28;20216;-84
2021/05/16 02:11:54;;;;;;;6.30;3.07;;;9.70;99.90;;;;;;5035442;28;20192;-85
2021/05/16 02:14:29;;;;;;;9.67;5.90;;;9.80;99.90;;;;;;5018653;28;20259;-85
2021/05/16 02:16:56;;;;;;;7.63;4.97;;;9.60;99.90;;;;;;5013517;28;20210;-86
2021/05/16 02:19:22;;;;;;;4.33;3.20;;;9.60;99.90;;;;;;5016742;28;20192;-84
2021/05/16 02:21:48;;;;;;;4.63;2.97;;;;;;;;;;5021325;28;20601;-86
2021/05/16 02:24:14;;;;;;;6.47;3.30;;;9.60;99.90;;;;;;5013851;28;20239;-84
2021/05/16 02:26:40;;;;;;;3.30;2.60;;;9.60;99.90;;;;;;5016986;28;20303;-84
2021/05/16 02:29:07;;;;;;;7.10;4.50;;;9.60;99.90;;;;;;5012686;28;20195;-84
2021/05/16 02:31:33;;;;;;;7.23;5.30;;;9.60;99.90;;;;;;5015424;28;20659;-84
2021/05/16 02:33:59;;;;;;;4.20;2.23;;;9.60;99.90;;;;;;5011490;28;20802;-84
2021/05/16 02:36:25;;;;;;;6.10;3.07;;;9.70;99.90;;;;;;5031449;28;20198;-84
2021/05/16 02:38:51;;;;;;;3.33;2.70;;;9.70;99.90;;;;;;5013478;28;20194;-84
2021/05/16 02:41:17;;;;;;;7.67;2.90;;;9.70;99.80;;;;;;5015098;28;20209;-84
2021/05/16 02:43:43;;;;;;;3.10;2.80;;;10.00;99.10;;;;;;5014533;28;20248;-84
2021/05/16 02:46:09;;;;;;;4.07;2.73;;;9.70;99.20;;;;;;5014893;28;20210;-84
2021/05/16 02:48:35;;;;;;;6.67;2.80;;;;;;;;;;5017624;28;20714;-84
2021/05/16 02:51:01;;;;;;;4.83;2.50;;;9.70;98.60;;;;;;5015411;28;20228;-84
2021/05/16 02:53:27;;;;;;;9.23;5.20;;;9.70;98.30;;;;;;5015051;28;20183;-84
2021/05/16 02:55:52;;;;;;;3.53;2.17;;;9.70;98.70;;;;;;5015703;28;20218;-84
2021/05/16 02:58:18;;;;;;;4.43;2.23;;;9.70;98.50;;;;;;5015417;28;20202;-84
2021/05/16 03:00:44;;;;;;;3.20;2.50;;;9.70;98.50;;;;;;5014343;28;20201;-84
2021/05/16 03:03:10;;;;;;;6.53;2.83;;;9.60;99.00;;;;;;5015288;28;20276;-84
2021/05/16 03:05:35;;;;;;;2.93;2.43;;;9.70;99.00;;;;;;5017879;28;20227;-84
2021/05/16 03:08:02;;;;;;;5.33;2.33;;;9.80;98.60;;;;;;5031239;28;20739;-84
2021/05/16 03:10:27;;;;;;;4.43;2.30;;;9.80;98.90;;;;;;5016879;28;20300;-84
2021/05/16 03:12:53;;;;;;;4.80;3.30;;;9.80;98.60;;;;;;5018449;28;20222;-84
2021/05/16 03:15:19;;;;;;;7.97;4.90;;;9.80;98.70;;;;;;5013019;28;20229;-84
2021/05/16 03:17:44;;;;;;;3.53;2.43;;;9.80;98.50;;;;;;5017823;28;20193;-84
2021/05/16 03:20:11;;;;;;;7.67;5.00;;;9.80;99.00;;;;;;5017653;28;20208;-84
2021/05/16 03:22:37;;;;;;;5.37;2.70;;;9.80;98.50;;;;;;5012103;28;20514;-84
2021/05/16 03:25:03;;;;;;;3.13;2.67;;;9.90;98.50;;;;;;5013183;28;20200;-84
2021/05/16 03:27:29;;;;;;;4.33;1.97;;;9.80;98.50;;;;;;5014157;28;20237;-84
2021/05/16 03:29:55;;;;;;;4.90;3.20;;;10.00;98.10;;;;;;5015523;28;20301;-84
2021/05/16 03:32:20;;;;;;;4.43;2.13;;;9.80;98.60;;;;;;5028344;28;20186;-83
2021/05/16 03:34:46;;;;;;;3.97;2.33;;;9.80;98.80;;;;;;5014885;28;20194;-83
2021/05/16 03:37:11;;;;;;;6.03;3.37;;;9.80;99.10;;;;;;5018073;28;20188;-83
2021/05/16 03:39:38;;;;;;;3.17;2.33;;;9.70;98.80;;;;;;5026177;28;20596;-83
2021/05/16 03:42:04;;;;;;;7.47;2.50;;;9.70;98.80;;;;;;5014011;28;20213;-83
2021/05/16 03:44:30;;;;;;;4.40;2.23;;;8.20;98.70;;;;;;5034463;28;20190;-83
2021/05/16 03:46:55;;;;;;;3.27;2.80;;;9.50;99.30;;;;;;5018422;28;20618;-83
2021/05/16 03:49:21;;;;;;;6.27;2.30;;;9.60;99.20;;;;;;5014098;28;20213;-83
2021/05/16 03:51:47;;;;;;;4.87;2.77;;;9.70;99.80;;;;;;5016925;28;20194;-83
2021/05/16 03:54:15;;;;;;;5.10;2.67;;;9.70;99.60;;;;;;5014404;28;20655;-83
2021/05/16 03:56:41;;;;;;;3.80;2.20;;;9.70;99.90;;;;;;5013877;28;20186;-83
2021/05/16 03:59:07;;;;;;;8.37;5.07;;;9.80;99.50;;;;;;5025240;28;20179;-83
2021/05/16 04:01:33;;;;;;;4.60;2.90;;;9.70;99.70;;;;;;5032624;28;20193;-83
2021/05/16 04:03:59;;;;;;;10.07;2.77;;;9.80;99.60;;;;;;5013949;28;20580;-83
2021/05/16 04:06:24;;;;;;;3.83;2.43;;;9.80;99.60;;;;;;5010846;28;20201;-83
2021/05/16 04:08:50;;;;;;;5.37;2.50;;;9.80;99.30;;;;;;5016789;28;20362;-83
2021/05/16 04:11:16;;;;;;;5.37;2.70;;;9.90;99.10;;;;;;5029845;28;20211;-83
2021/05/16 04:13:41;;;;;;;2.93;2.33;;;9.90;99.30;;;;;;5030975;28;20278;-83
2021/05/16 04:16:07;;;;;;;4.20;2.37;;;9.80;99.30;;;;;;5013722;28;20218;-83
2021/05/16 04:18:33;;;;;;;4.40;2.70;;;;;;;;;;5017307;28;20185;-84
2021/05/16 04:21:01;;;;;;;3.00;2.17;;;9.90;99.30;;;;;;5033825;28;20236;-83
2021/05/16 04:23:27;;;;;;;3.57;2.40;;;10.00;98.70;;;;;;5008821;28;20204;-82
2021/05/16 04:25:53;;;;;;;6.60;4.27;;;;;;;;;;5016916;28;20548;-83
2021/05/16 04:28:19;;;;;;;5.47;2.47;;;9.90;98.90;;;;;;5033689;28;20244;-83
2021/05/16 04:30:44;;;;;;;8.50;2.37;;;9.90;99.20;;;;;;5018950;28;20755;-83
2021/05/16 04:33:10;;;;;;;4.00;2.40;;;9.90;99.90;;;;;;5016903;28;20226;-83
2021/05/16 04:35:36;;;;;;;5.00;2.60;;;10.00;99.00;;;;;;5021124;28;20184;-83
2021/05/16 04:38:01;;;;;;;7.43;2.50;;;10.00;99.50;;;;;;5019222;28;22490;-83
2021/05/16 04:40:27;;;;;;;7.23;2.60;;;10.40;98.00;;;;;;5032786;28;20186;-83
2021/05/16 04:42:53;;;;;;;5.50;2.47;;;10.40;98.20;;;;;;5017130;28;20195;-83
2021/05/16 04:45:18;;;;;;;2.53;2.10;;;10.50;97.50;;;;;;5025515;28;20543;-84
2021/05/16 04:47:45;;;;;;;3.93;2.77;;;10.70;96.40;;;;;;5019722;28;20636;-82
2021/05/16 04:50:13;;;;;;;8.87;4.83;;;10.70;96.00;;;;;;5012324;28;20211;-83
2021/05/16 04:52:39;;;;;;;2.70;2.37;;;10.70;95.30;;;;;;5019106;28;20191;-83
2021/05/16 04:55:05;;;;;;;2.63;2.10;;;10.70;94.60;;;;;;5019798;28;20948;-83
2021/05/16 04:57:31;;;;;;;4.67;2.23;;;10.70;94.90;;;;;;5011973;28;20188;-82
2021/05/16 04:59:57;;;;;;;3.30;2.43;;;10.70;94.50;;;;;;5038039;28;20553;-83
2021/05/16 05:02:23;;;;;;;2.77;1.80;;;10.70;95.00;;;;;;5012448;28;20197;-83
2021/05/16 05:04:48;;;;;;;3.60;2.03;;;10.60;94.80;;;;;;5022516;28;20191;-82
2021/05/16 05:07:15;;;;;;;3.10;1.97;;;10.70;94.70;;;;;;5019639;28;20215;-82
2021/05/16 05:09:41;;;;;;;6.47;4.47;;;10.70;95.00;;;;;;5018382;28;20577;-82
2021/05/16 05:12:07;;;;;;;3.07;2.13;;;10.80;95.00;;;;;;5024509;28;20187;-82
2021/05/16 05:14:32;;;;;;;1.90;1.70;;;10.80;94.80;;;;;;5039677;28;20654;-82
2021/05/16 05:16:58;;;;;;;4.67;2.23;;;10.80;94.70;;;;;;5020603;28;20321;-82
2021/05/16 05:19:24;;;;;;;2.50;2.13;;;10.80;95.00;;;;;;5023200;28;20217;-82
2021/05/16 05:21:50;;;;;;;3.57;2.07;;;10.80;95.10;;;;;;5019725;28;20207;-82
2021/05/16 05:24:16;;;;;;;3.07;1.93;;;10.80;94.70;;;;;;5022517;28;20265;-82
2021/05/16 05:26:41;;;;;;;3.13;2.10;;;10.90;94.90;;;;;;5019535;28;20257;-82
2021/05/16 05:29:07;;;;;;;7.30;4.53;;;10.90;94.70;;;;;;5024212;28;20181;-82
2021/05/16 05:31:33;;;;;;;4.80;2.37;;;11.00;94.70;;;;;;5040445;28;20195;-83
2021/05/16 05:33:58;;;;;;;3.60;3.10;;;11.10;94.40;;;;;;5014324;28;20181;-82
2021/05/16 05:36:24;;;;;;;6.13;4.87;;;11.10;94.50;;;;;;5025929;28;20270;-83
2021/05/16 05:38:50;;;;;;;3.00;2.10;;;11.20;94.50;;;;;;5018920;28;20772;-82
2021/05/16 05:41:15;;;;;;;2.63;2.17;;;11.20;93.40;;;;;;5014987;28;20187;-82
2021/05/16 05:43:41;;;;;;;2.67;2.00;;;11.10;93.40;;;;;;5020178;28;20281;-82
2021/05/16 05:46:07;;;;;;;2.43;2.03;;;11.10;94.00;;;;;;5025572;28;20676;-82
2021/05/16 05:48:33;;;;;;;2.30;2.10;;;11.10;94.00;;;;;;5019448;28;20198;-82
2021/05/16 05:50:58;;;;;;;3.13;2.07;;;11.40;93.70;;;;;;5021996;28;20225;-83
2021/05/16 05:53:24;;;;;;;2.63;2.20;;;11.40;94.20;;;;;;5019591;28;20215;-82
2021/05/16 05:55:50;;;;;;;2.40;2.00;;;11.60;93.10;;;;;;5019862;28;20211;-83
2021/05/16 05:58:16;;;;;;;4.20;2.60;;;11.70;92.30;;;;;;5021316;28;20243;-82
2021/05/16 06:00:42;;;;;;;2.43;2.23;;;11.80;92.30;;;;;;5019996;28;20191;-83
2021/05/16 06:03:07;;;;;;;7.37;5.37;;;11.90;92.20;;;;;;5018227;28;20221;-83
2021/05/16 06:05:33;;;;;;;7.37;5.10;;;12.00;91.80;;;;;;5016005;28;20195;-83
2021/05/16 06:07:59;;;;;;;6.93;4.77;;;12.00;90.70;;;;;;5019459;28;20224;-82
2021/05/16 06:10:25;;;;;;;3.57;2.50;;;12.00;91.30;;;;;;5016430;28;20265;-83
2021/05/16 06:12:52;;;;;;;3.13;2.53;;;12.00;91.70;;;;;;5032003;28;20194;-82
2021/05/16 06:15:19;;;;;;;5.43;4.37;;;;;;;;;;5021235;28;20195;-83
2021/05/16 06:17:45;;;;;;;3.67;2.70;;;12.10;90.30;;;;;;5020666;28;20252;-83
2021/05/16 06:20:11;;;;;;;4.00;2.67;;;12.10;90.30;;;;;;5021285;28;20202;-82
2021/05/16 06:22:37;;;;;;;3.43;3.13;;;12.00;91.00;;;;;;5021004;28;20191;-82
2021/05/16 06:25:03;;;;;;;6.30;4.97;;;11.90;91.30;;;;;;5019574;28;20275;-82
2021/05/16 06:27:29;;;;;;;6.47;4.63;;;11.90;91.40;;;;;;5018358;28;20195;-83
2021/05/16 06:29:55;;;;;;;4.13;3.03;;;;;;;;;;5038787;28;20241;-82
2021/05/16 06:32:21;;;;;;;3.90;3.50;;;11.90;91.20;;;;;;5040207;28;20190;-82
2021/05/16 06:34:47;;;;;;;4.17;3.50;;;11.80;91.60;;;;;;5022552;28;20785;-82
2021/05/16 06:37:12;;;;;;;7.00;4.80;;;11.80;92.00;;;;;;5014129;28;20199;-82
2021/05/16 06:39:38;;;;;;;5.00;3.70;;;11.90;91.80;;;;;;5016893;28;20202;-82
2021/05/16 06:42:04;;;;;;;3.47;3.17;;;11.90;91.90;;;;;;5038918;28;20190;-83
2021/05/16 06:44:30;;;;;;;4.40;3.50;;;11.90;91.70;;;;;;5015899;28;20282;-82
2021/05/16 06:46:55;;;;;;;3.30;3.00;;;12.00;92.00;;;;;;5020707;28;20194;-82
2021/05/16 06:49:21;;;;;;;4.07;3.47;;;12.00;91.90;;;;;;5018416;28;20266;-83
2021/05/16 06:51:47;;;;;;;4.40;3.70;;;12.00;91.90;;;;;;5035156;28;20379;-86
2021/05/16 06:54:13;;;;;;;4.50;3.90;;;12.00;92.00;;;;;;5021726;28;20192;-84
2021/05/16 06:56:39;;;;;;;4.37;3.97;;;11.90;92.50;;;;;;5018132;28;20194;-83
2021/05/16 06:59:05;;;;;;;6.30;4.37;;;11.80;92.90;;;;;;5016575;28;20176;-82
2021/05/16 07:01:31;;;;;;;4.97;4.30;;;11.80;93.70;;;;;;5018342;28;20183;-82
2021/05/16 07:03:57;;;;;;;6.87;5.97;;;12.00;94.20;;;;;;5023860;28;20186;-83
2021/05/16 07:06:22;;;;;;;4.60;4.20;;;11.90;94.80;;;;;;5022035;28;20266;-83
2021/05/16 07:08:48;;;;;;;5.33;4.60;;;11.90;94.90;;;;;;5027170;28;20269;-83
2021/05/16 07:11:15;;;;;;;6.33;4.40;;;11.90;95.30;;;;;;5016539;28;20249;-81
2021/05/16 07:13:40;;;;;;;4.50;4.10;;;12.00;95.50;;;;;;5019619;28;20209;-79
2021/05/16 07:16:06;;;;;;;8.77;4.80;;;11.90;96.10;;;;;;5020278;28;20218;-80
2021/05/16 07:18:32;;;;;;;5.07;4.10;;;12.10;95.30;;;;;;5028763;28;20191;-80
2021/05/16 07:20:58;;;;;;;4.23;3.83;;;12.20;95.20;;;;;;5018695;28;20235;-80
2021/05/16 07:23:23;;;;;;;5.13;4.63;;;12.30;95.50;;;;;;5027819;28;20191;-81
2021/05/16 07:25:49;;;;;;;7.17;4.63;;;12.30;95.20;;;;;;5014539;28;20229;-80
2021/05/16 07:28:15;;;;;;;5.57;4.13;;;12.30;94.00;;;;;;5019677;28;20190;-80
2021/05/16 07:30:41;;;;;;;4.43;4.03;;;12.20;93.40;;;;;;5032202;28;20216;-81
2021/05/16 07:33:06;;;;;;;5.30;4.10;;;12.20;93.80;;;;;;5018535;28;20191;-81
2021/05/16 07:35:32;;;;;;;4.30;3.90;;;12.20;94.30;;;;;;5017412;28;20180;-82
2021/05/16 07:37:58;;;;;;;4.27;3.63;;;12.20;94.70;;;;;;5018976;28;25031;-80
2021/05/16 07:40:24;;;;;;;5.20;3.53;;;12.40;93.20;;;;;;5019372;28;20196;-82
2021/05/16 07:42:50;;;;;;;3.77;3.30;;;12.50;93.80;;;;;;5005857;28;20555;-82
2021/05/16 07:45:17;;;;;;;6.93;4.70;;;12.50;93.50;;;;;;5018881;28;20251;-82
2021/05/16 07:47:43;;;;;;;5.03;3.70;;;12.70;94.00;;;;;;5022726;28;20209;-81
2021/05/16 07:50:13;;;;;;;3.40;2.67;;;12.50;93.20;;;;;;5004136;28;20216;-81
2021/05/16 07:52:39;;;;;;;3.50;2.97;;;12.50;93.60;;;;;;5022936;28;20197;-80
2021/05/16 07:55:05;;;;;;;3.70;3.10;;;12.50;94.30;;;;;;5032152;28;20215;-81
2021/05/16 07:57:31;;;;;;;3.53;2.40;;;12.70;94.10;;;;;;5021756;28;20188;-81
2021/05/16 07:59:56;;;;;;;3.33;2.60;;;13.10;92.10;;;;;;5023816;28;20576;-81
2021/05/16 08:02:22;;;;;;;3.40;2.03;;;13.20;92.20;;;;;;5016267;28;20192;-81
2021/05/16 08:04:48;;;;;;;3.57;2.40;;;13.60;91.90;;;;;;5016484;28;20257;-81
2021/05/16 08:07:13;;;;;;;3.00;2.23;;;13.80;86.60;;;;;;5018725;28;20205;-81
2021/05/16 08:09:39;;;;;;;2.60;2.03;;;13.80;87.30;;;;;;5021870;28;20205;-81
2021/05/16 08:12:05;;;;;;;3.10;2.07;;;13.90;87.80;;;;;;5035404;28;20176;-81
2021/05/16 08:14:31;;;;;;;3.23;2.50;;;13.80;85.50;;;;;;5025238;28;21280;-81
2021/05/16 08:16:56;;;;;;;2.70;1.90;;;13.70;88.30;;;;;;5026106;28;20210;-81
2021/05/16 08:19:22;;;;;;;3.47;2.13;;;13.90;86.60;;;;;;5023273;28;20255;-82
2021/05/16 08:21:48;;;;;;;4.30;2.03;;;14.00;85.40;;;;;;5026737;28;20738;-80
2021/05/16 08:24:15;;;;;;;2.33;1.70;;;14.00;81.60;;;;;;5043355;28;20186;-81
2021/05/16 08:26:41;;;;;;;4.20;1.43;;;14.00;82.10;;;;;;5023885;28;20191;-80
2021/05/16 08:29:07;;;;;;;3.33;1.90;;;13.60;84.90;;;;;;5030065;28;20642;-81
2021/05/16 08:31:35;;;;;;;3.83;2.00;;;13.60;86.40;;;;;;5021736;28;20193;-80
2021/05/16 08:34:03;;;;;;;2.20;1.93;;;13.40;83.60;;;;;;5021937;28;20191;-80
2021/05/16 08:36:34;;;;;;;3.00;2.10;;;13.40;84.20;;;;;;5021770;28;20187;-79
2021/05/16 08:39:01;;;;;;;1.53;1.30;;;13.30;83.80;;;;;;5025755;28;20191;-83
2021/05/16 08:41:27;;;;;;;1.73;1.37;;;13.40;85.10;;;;;;5003396;28;20196;-80
2021/05/16 08:43:52;;;;;;;4.50;1.90;;;13.20;89.50;;;;;;5017632;28;20240;-80
2021/05/16 08:46:18;;;;;;;3.07;1.67;;;13.20;90.10;;;;;;5021736;28;20512;-80
2021/05/16 08:48:44;;;;;;;3.17;1.70;;;13.20;91.10;;;;;;5020634;28;20188;-80
2021/05/16 08:51:11;;;;;;;1.80;1.53;;;13.40;91.10;;;;;;5021880;28;20276;-80
2021/05/16 08:53:37;;;;;;;3.47;2.17;;;13.70;90.70;;;;;;5018550;28;20203;-81
2021/05/16 08:56:10;;;;;;;2.00;1.67;;;13.70;90.70;;;;;;5017260;28;20701;-80
2021/05/16 08:58:37;;;;;;;4.67;2.00;;;13.10;91.50;;;;;;5020386;28;20187;-83
2021/05/16 09:01:21;;;;;;;1.53;1.40;;;13.00;92.20;;;;;;5033888;28;20195;-82
2021/05/16 09:03:47;;;;;;;2.53;2.13;;;13.00;93.80;;;;;;5025145;28;20206;-82
2021/05/16 09:06:13;;;;;;;2.50;1.63;;;;;;;;;;5027895;28;20266;-80
2021/05/16 09:08:39;;;;;;;4.80;2.17;;;12.80;92.10;;;;;;5015295;28;20265;-81
2021/05/16 09:11:05;;;;;;;2.10;1.60;;;;;;;;;;5015750;28;20247;-81
2021/05/16 09:13:41;;;;;;;4.57;1.90;;;12.90;93.20;;;;;;5020956;28;20201;-81
2021/05/16 09:16:15;;;;;;;3.13;2.03;;;13.00;92.20;;;;;;5003954;28;20266;-80
2021/05/16 09:18:52;;;;;;;5.70;2.30;;;13.10;91.20;;;;;;5011720;28;20199;-81
2021/05/16 09:21:28;;;;;;;2.60;1.97;;;13.10;88.60;;;;;;5003735;28;20229;-80
2021/05/16 09:24:21;;;;;;;3.83;2.47;;;12.90;88.00;;;;;;5020279;28;20187;-81
2021/05/16 09:26:58;;;;;;;5.27;2.33;;;12.40;91.40;;;;;;4950762;28;20958;-81
2021/05/16 09:29:27;;;;;;;2.93;1.80;;;12.30;91.20;;;;;;4935419;28;20204;-80
2021/05/16 09:31:54;;;;;;;5.03;2.60;;;12.40;90.90;;;;;;4926389;29;20245;-80
2021/05/16 09:34:20;;;;;;;3.20;1.63;;;;;;;;;;4935064;28;21633;-80
2021/05/16 09:36:48;;;;;;;5.50;2.40;;;13.00;90.60;;;;;;4952090;28;20187;-82
2021/05/16 09:39:22;;;;;;;1.63;1.53;;;13.30;87.60;;;;;;4935291;28;20232;-81
2021/05/16 09:42:13;;;;;;;4.43;2.10;;;13.70;84.80;;;;;;4941103;28;20201;-80
2021/05/16 09:44:44;;;;;;;6.60;2.60;;;14.00;80.40;;;;;;4937593;28;20401;-82
2021/05/16 09:47:26;;;;;;;2.20;1.40;;;14.20;77.70;;;;;;4938328;28;20194;-82
2021/05/16 09:50:01;;;;;;;3.10;1.70;;;14.30;76.10;;;;;;4937468;28;20635;-82
2021/05/16 09:52:34;;;;;;;4.43;1.70;;;14.70;74.90;;;;;;4957212;28;20193;-81
2021/05/16 09:55:07;;;;;;;2.60;1.47;;;15.00;75.30;;;;;;4954675;28;20198;-80
2021/05/16 09:57:46;;;;;;;4.53;1.67;;;14.90;77.30;;;;;;4950207;28;20288;-82
2021/05/16 10:00:15;;;;;;;3.13;2.10;;;14.40;82.50;;;;;;4953030;28;20265;-82
2021/05/16 10:02:41;;;;;;;5.33;2.23;;;;;;;;;;4960087;28;20206;-83
2021/05/16 10:05:10;;;;;;;5.10;2.10;;;14.00;89.20;;;;;;5009398;28;20199;-83
2021/05/16 10:07:41;;;;;;;7.07;2.87;;;13.60;91.50;;;;;;5028420;28;20307;-84
2021/05/16 10:10:08;;;;;;;3.93;2.53;;;13.60;85.10;;;;;;5004649;28;21018;-81
2021/05/16 10:12:39;;;;;;;2.73;1.93;;;13.70;84.30;;;;;;5015565;28;20215;-82
2021/05/16 10:15:23;;;;;;;6.27;1.50;;;13.50;77.50;;;;;;5022207;28;20193;-81
2021/05/16 10:17:52;;;;;;;4.40;2.20;;;13.90;83.20;;;;;;5009020;28;20235;-83
2021/05/16 10:20:22;;;;;;;5.47;1.90;;;14.50;81.90;;;;;;5007359;28;20707;-81
2021/05/16 10:23:03;;;;;;;4.63;2.20;;;14.80;79.10;;;;;;5010685;28;20280;-82
2021/05/16 10:25:43;;;;;;;2.43;1.40;;;14.90;75.80;;;;;;5010672;28;20187;-81
2021/05/16 10:28:14;;;;;;;4.93;1.47;;;14.90;77.00;;;;;;5012558;28;20195;-82
2021/05/16 10:30:43;;;;;;;4.80;2.07;;;;;;;;;;5013071;28;20219;-82
2021/05/16 10:33:30;;;;;;;3.90;2.10;;;15.00;71.50;;;;;;5010174;28;20203;-83
2021/05/16 10:35:55;;;;;;;4.63;1.63;;;15.20;72.90;;;;;;5010177;28;22035;-82
2021/05/16 10:38:38;;;;;;;5.07;1.63;;;15.20;66.30;;;;;;5008643;28;20322;-83
2021/05/16 10:41:17;;;;;;;5.63;2.03;;;15.50;68.20;;;;;;5005340;28;20224;-82
2021/05/16 10:43:43;;;;;;;2.73;1.47;;;15.50;70.20;;;;;;5007513;28;20303;-82
2021/05/16 10:46:36;;;;;;;4.27;1.60;;;15.60;71.40;;;;;;5007041;28;20288;-82
2021/05/16 10:49:21;;;;;;;2.17;1.60;;;15.90;65.80;;;;;;5010429;28;20197;-82
2021/05/16 10:51:47;;;;;;;1.53;1.07;;;15.70;61.20;;;;;;5001698;28;20199;-82
2021/05/16 10:54:34;;;;;;;0.70;0.70;;;15.60;62.90;;;;;;5008577;28;20201;-82
2021/05/16 10:57:19;;;;;;;2.90;1.53;;;15.80;66.90;;;;;;5008733;28;20191;-83
2021/05/16 10:59:46;;;;;;;1.57;1.20;;;16.00;60.70;;;;;;5020719;28;20176;-82
2021/05/16 11:02:12;;;;;;;2.53;1.30;;;;;;;;;;5022594;28;20208;-81
2021/05/16 11:04:46;;;;;;;3.03;1.47;;;16.50;64.20;;;;;;5003645;28;20272;-82
2021/05/16 11:07:31;;;;;;;3.40;1.87;;;17.00;60.70;;;;;;5007949;28;20213;-82
2021/05/16 11:10:22;;;;;;;2.70;1.20;;;17.10;57.90;;;;;;5010072;28;20335;-83
2021/05/16 11:12:48;;;;;;;3.73;1.30;;;17.10;59.00;;;;;;5025233;28;20204;-81
2021/05/16 11:15:25;;;;;;;2.57;1.40;;;17.20;58.60;;;;;;5003912;28;20199;-82
2021/05/16 11:17:51;;;;;;;2.17;1.23;;;17.70;50.40;;;;;;5004652;28;20220;-83
2021/05/16 11:20:20;;;;;;;3.60;1.17;;;17.90;50.50;;;;;;5002715;28;20199;-83
2021/05/16 11:22:46;;;;;;;7.70;1.57;;;;;;;;;;5005703;28;20235;-83
2021/05/16 11:25:24;;;;;;;3.03;1.43;;;18.20;51.00;;;;;;5023751;28;20222;-81
2021/05/16 11:27:50;;;;;;;4.07;1.40;;;18.50;46.70;;;;;;5004887;28;20202;-81
2021/05/16 11:30:16;;;;;;;2.63;1.03;;;;;;;;;;5009117;28;21012;-83
2021/05/16 11:32:42;;;;;;;3.20;1.00;;;18.40;46.00;;;;;;5010482;28;20199;-82
2021/05/16 11:35:20;;;;;;;2.70;1.03;;;18.10;44.40;;;;;;5007400;28;20190;-82
2021/05/16 11:37:51;;;;;;;3.37;0.97;;;18.50;45.50;;;;;;5010104;28;20196;-84
2021/05/16 11:40:31;;;;;;;1.73;0.60;;;18.10;44.90;;;;;;5008453;28;20191;-85
2021/05/16 11:42:59;;;;;;;2.53;0.90;;;17.90;44.40;;;;;;5005763;28;20187;-85
2021/05/16 11:45:37;;;;;;;5.10;1.40;;;18.40;45.10;;;;;;5005625;28;20199;-84
2021/05/16 11:48:03;;;;;;;2.93;1.03;;;19.50;43.10;;;;;;5006401;28;20278;-86
2021/05/16 11:50:44;;;;;;;3.13;1.03;;;20.80;38.00;;;;;;5024578;28;20252;-83
2021/05/16 11:53:10;;;;;;;5.20;1.30;;;21.80;37.70;;;;;;5011722;28;20202;-80
2021/05/16 11:55:36;;;;;;;1.63;0.83;;;;;;;;;;5001953;28;20201;-80
2021/05/16 11:58:03;;;;;;;3.33;1.10;;;21.70;36.40;;;;;;5020194;28;20543;-80
2021/05/16 12:00:32;;;;;;;2.83;1.63;;;20.80;37.20;;;;;;5002737;28;20203;-81
2021/05/16 12:03:11;;;;;;;4.30;1.40;;;19.80;39.60;;;;;;5003902;28;20201;-80
2021/05/16 12:05:38;;;;;;;2.50;1.30;;;19.70;39.20;;;;;;5029878;28;20603;-81
2021/05/16 12:08:33;;;;;;;3.97;1.27;;;18.80;40.30;;;;;;5014711;28;20228;-79
2021/05/16 12:11:11;;;;;;;2.33;1.10;;;18.70;41.60;;;;;;5014322;28;20223;-80
2021/05/16 12:13:37;;;;;;;2.57;1.50;;;18.70;41.80;;;;;;5012285;28;20188;-81
2021/05/16 12:16:23;;;;;;;3.47;1.50;;;18.70;42.00;;;;;;5016809;28;20189;-81
2021/05/16 12:18:55;;;;;;;3.07;1.27;;;18.00;43.90;;;;;;5028155;28;20188;-80
2021/05/16 12:21:22;;;;;;;3.20;1.27;;;18.00;44.50;;;;;;5007280;28;20304;-81
2021/05/16 12:23:55;;;;;;;2.63;1.00;;;18.80;45.20;;;;;;5030406;28;20192;-81
2021/05/16 12:26:22;;;;;;;1.70;1.00;;;19.90;45.20;;;;;;5011147;28;20198;-81
2021/05/16 12:28:49;;;;;;;4.63;1.43;;;21.20;39.60;;;;;;5009325;28;20187;-80
2021/05/16 12:31:16;;;;;;;2.03;1.07;;;21.10;38.10;;;;;;5002578;28;20327;-81
2021/05/16 12:33:42;;;;;;;1.67;1.17;;;21.80;40.60;;;;;;5002977;28;20371;-81
2021/05/16 12:36:09;;;;;;;2.60;1.20;;;21.80;40.10;;;;;;5007029;28;20207;-80
2021/05/16 12:38:43;;;;;;;1.97;1.00;;;21.10;42.30;;;;;;5019353;28;21315;-81
2021/05/16 12:41:19;;;;;;;3.73;1.10;;;20.40;43.10;;;;;;5000719;28;20201;-80
2021/05/16 12:44:04;;;;;;;2.90;1.67;;;19.80;46.10;;;;;;5009638;28;20210;-80
2021/05/16 12:46:48;;;;;;;1.90;1.37;;;17.40;51.90;;;;;;5004952;28;20278;-80
2021/05/16 12:49:18;;;;;;;2.73;1.70;;;16.70;54.80;;;;;;5008021;28;20197;-80
2021/05/16 12:51:52;;;;;;;3.63;2.07;;;16.00;64.50;;;;;;5015897;28;20190;-81
2021/05/16 12:54:20;;;;;;;4.30;1.50;;;15.80;75.60;;;;;;5021061;28;20171;-80
2021/05/16 12:56:53;;;;;;;3.43;1.73;;;15.70;72.80;;;;;;5006499;28;20276;-80
2021/05/16 12:59:33;;;;;;;3.73;1.37;;;16.00;62.80;;;;;;5005752;28;20698;-80
2021/05/16 13:02:05;;;;;;;1.63;1.33;;;16.80;68.30;;;;;;5007749;28;20260;-81